map of PFB home
PFB - Airport
Location
City:  Passo Fundo, Rio Grande do Sul, Brazil
Name:Lauro Kurtz
ICAO:SBPF
IATA:PFB

Details
Type:Airport (Aerodrome, Airfield)
Latitude:2814'38"S (-28.243988)
Longitude:5219'36"W (-52.326557)
Datum:WGS 1984
Elevation:2376 ft (724 m)
Variation:16.95W (WMM2015 magnetic declination)
-0.16 annual change
Runways:1
Longest:5577 × 75 ft (1700 × 23 m), paved

Time
Time Zone:UTC-3 (DST-2)
Local Time:

Weather
METAR:SBPF 182100Z 00000KT CAVOK 22/18 Q1015

Related Locations
Nearby:
Farthest:TKN: 12364 mi / 19898 km
Tokunoshima [Tokunoshima Airport], Satsunan Islands, 46, JP

Find:

   beyond  
but within

Other Information
Maps:
NOTAMs:
Links:
Sources:

  
  • flag of Brazil
  • flag of Rio Grande do Sul
  

Sectional Chart

Flight Planning
at skyvector.com

Satellite Image

Google Maps Satellite view

 

Copyright © 2004-2018 Karl L. Swartz. All rights reserved.
The Great Circle Mapper name and logo are trademarks of the Great Circle Mapper.
All other trademarks mentioned herein belong to their respective owners.
Please see credits for attibutions and further copyright information.

  Follow gcmap on Facebook Follow gcmap on Twitter Follow gcmap on Google+ GCmap on LinkedIn

hCard Microformat

Geo Microformat